Time;durP1;ratioP1;P1;durP2;ratioP2;P2;SDS_P1;SDS_P2;PMS_P1;PMS_P2;Temp;Humidity;BMP_temperature;BMP_pressure;BME280_temperature;BME280_humidity;BME280_pressure;Samples;Min_cycle;Max_cycle;Signal;HPM_P1;HPM_P2
2023/07/28 00:02:17;;;;;;;;;;;17.90;99.90;;;;;;5061365;28;19921;-85
2023/07/28 00:04:42;;;;;;;;;;;17.90;99.90;;;;;;5056173;28;19916;-85
2023/07/28 00:07:08;;;;;;;;;;;17.90;99.90;;;;;;5056693;28;19916;-88
2023/07/28 00:09:33;;;;;;;;;;;17.90;99.90;;;;;;5063155;28;19920;-85
2023/07/28 00:11:59;;;;;;;;;;;17.90;99.90;;;;;;5056960;28;19917;-87
2023/07/28 00:14:25;;;;;;;;;;;17.90;99.90;;;;;;5058281;28;20415;-85
2023/07/28 00:16:55;;;;;;;;;;;17.90;99.90;;;;;;5064766;28;19959;-87
2023/07/28 00:19:23;;;;;;;;;;;17.90;99.90;;;;;;5057557;28;20417;-86
2023/07/28 00:21:49;;;;;;;;;;;18.00;99.90;;;;;;5057942;28;19942;-85
2023/07/28 00:24:15;;;;;;;;;;;18.00;99.90;;;;;;5065656;28;19920;-86
2023/07/28 00:26:40;;;;;;;;;;;18.00;99.90;;;;;;5059048;28;20398;-87
2023/07/28 00:29:06;;;;;;;;;;;18.00;99.90;;;;;;5062774;28;19970;-87
2023/07/28 00:31:32;;;;;;;;;;;18.00;99.90;;;;;;5056630;28;19999;-85
2023/07/28 00:33:57;;;;;;;;;;;18.00;99.90;;;;;;5065245;28;19924;-88
2023/07/28 00:36:23;;;;;;;;;;;18.00;99.90;;;;;;5072109;28;19958;-86
2023/07/28 00:38:48;;;;;;;;;;;17.90;99.90;;;;;;5064338;28;19970;-87
2023/07/28 00:41:14;;;;;;;;;;;17.90;99.90;;;;;;5062372;28;19917;-87
2023/07/28 00:43:39;;;;;;;;;;;17.90;99.90;;;;;;5057187;28;19941;-87
2023/07/28 00:46:05;;;;;;;;;;;17.90;99.90;;;;;;5057155;28;19940;-86
2023/07/28 00:48:30;;;;;;;;;;;18.00;99.90;;;;;;5054514;28;20376;-87
2023/07/28 00:50:57;;;;;;;;;;;18.00;99.90;;;;;;5057963;28;20350;-87
2023/07/28 00:53:23;;;;;;;;;;;18.00;99.90;;;;;;5062718;28;19993;-88
2023/07/28 00:55:49;;;;;;;;;;;17.90;99.90;;;;;;5058714;28;20396;-86
2023/07/28 00:58:14;;;;;;;;;;;18.00;99.90;;;;;;5068446;28;19916;-87
2023/07/28 01:00:40;;;;;;;;;;;18.00;99.90;;;;;;5070846;28;19920;-87
2023/07/28 01:03:05;;;;;;;;;;;17.90;99.90;;;;;;5058633;28;20374;-86
2023/07/28 01:05:50;;;;;;;;;;;17.90;99.90;;;;;;5067302;28;20059;-86
2023/07/28 01:08:19;;;;;;;;;;;18.00;99.90;;;;;;5061179;28;20366;-87
2023/07/28 01:10:44;;;;;;;;;;;18.00;99.90;;;;;;5064798;28;19950;-86
2023/07/28 01:13:10;;;;;;;;;;;18.00;99.90;;;;;;5066631;28;19963;-87
2023/07/28 01:15:35;;;;;;;;;;;18.00;99.90;;;;;;5065392;28;19920;-86
2023/07/28 01:18:01;;;;;;;;;;;18.00;99.90;;;;;;5064562;28;20404;-85
2023/07/28 01:20:28;;;;;;;;;;;18.00;99.90;;;;;;5057242;28;22292;-86
2023/07/28 01:23:06;;;;;;;;;;;18.00;99.90;;;;;;5065794;28;19916;-88
2023/07/28 01:26:05;;;;;;;;;;;18.00;99.90;;;;;;5065194;28;19942;-87
2023/07/28 01:28:30;;;;;;;;;;;18.00;99.90;;;;;;5044145;28;20483;-87
2023/07/28 01:30:56;;;;;;;;;;;18.00;99.90;;;;;;5058208;28;20381;-87
2023/07/28 01:33:22;;;;;;;;;;;18.00;99.90;;;;;;5065450;28;19920;-86
2023/07/28 01:35:48;;;;;;;;;;;18.00;99.90;;;;;;5081570;28;20396;-87
2023/07/28 01:38:13;;;;;;;;;;;18.00;99.90;;;;;;5067001;28;19966;-88
2023/07/28 01:40:39;;;;;;;;;;;18.00;99.90;;;;;;5070373;28;20009;-88
2023/07/28 01:43:04;;;;;;;;;;;18.00;99.90;;;;;;5060536;28;19913;-88
2023/07/28 01:45:30;;;;;;;;;;;18.00;99.90;;;;;;5058814;28;20282;-86
2023/07/28 01:47:55;;;;;;;;;;;18.00;99.90;;;;;;5067294;28;19943;-86
2023/07/28 01:50:20;;;;;;;;;;;18.00;99.90;;;;;;5067143;28;20055;-88
2023/07/28 01:52:46;;;;;;;;;;;18.00;99.90;;;;;;5067727;28;20374;-88
2023/07/28 01:55:11;;;;;;;;;;;18.00;99.90;;;;;;5067341;28;19913;-87
2023/07/28 01:57:39;;;;;;;;;;;18.00;99.90;;;;;;5083019;28;19916;-88
2023/07/28 02:00:04;;;;;;;;;;;18.00;99.90;;;;;;5062372;28;20007;-87
2023/07/28 02:02:30;;;;;;;;;;;18.10;99.90;;;;;;5064567;28;20416;-87
2023/07/28 02:04:55;;;;;;;;;;;18.00;99.90;;;;;;5064878;28;20846;-87
2023/07/28 02:07:21;;;;;;;;;;;18.10;99.90;;;;;;5068702;28;19920;-88
2023/07/28 02:09:46;;;;;;;;;;;18.10;99.90;;;;;;5065177;28;19917;-88
2023/07/28 02:12:12;;;;;;;;;;;18.10;99.90;;;;;;5067493;28;20370;-88
2023/07/28 02:14:37;;;;;;;;;;;18.10;99.90;;;;;;5063657;28;19927;-87
2023/07/28 02:17:03;;;;;;;;;;;18.10;99.90;;;;;;5063929;28;20270;-88
2023/07/28 02:19:28;;;;;;;;;;;18.10;99.90;;;;;;5067346;28;19924;-87
2023/07/28 02:21:54;;;;;;;;;;;18.10;99.90;;;;;;5069104;28;19923;-87
2023/07/28 02:24:19;;;;;;;;;;;18.10;99.90;;;;;;5067908;28;20377;-85
2023/07/28 02:26:44;;;;;;;;;;;18.10;99.90;;;;;;5066884;28;19916;-85
2023/07/28 02:29:10;;;;;;;;;;;18.10;99.90;;;;;;5067602;28;19970;-86
2023/07/28 02:31:35;;;;;;;;;;;18.10;99.90;;;;;;5066725;28;20330;-86
2023/07/28 02:34:01;;;;;;;;;;;18.10;99.90;;;;;;5068014;28;19977;-85
2023/07/28 02:36:26;;;;;;;;;;;18.10;99.90;;;;;;5064106;28;20380;-86
2023/07/28 02:38:52;;;;;;;;;;;18.10;99.90;;;;;;5062166;28;19920;-87
2023/07/28 02:41:17;;;;;;;;;;;18.10;99.90;;;;;;5082138;28;20007;-86
2023/07/28 02:43:43;;;;;;;;;;;18.10;99.90;;;;;;5062484;28;19927;-87
2023/07/28 02:46:08;;;;;;;;;;;18.20;99.90;;;;;;5063050;28;20374;-87
2023/07/28 02:48:34;;;;;;;;;;;18.20;99.90;;;;;;5067143;28;20003;-85
2023/07/28 02:50:59;;;;;;;;;;;18.20;99.90;;;;;;5063019;28;19917;-87
2023/07/28 02:53:24;;;;;;;;;;;18.20;99.90;;;;;;5082880;28;19920;-88
2023/07/28 02:55:50;;;;;;;;;;;18.20;99.90;;;;;;5068770;28;19976;-88
2023/07/28 02:58:16;;;;;;;;;;;18.20;99.90;;;;;;5067636;28;20359;-88
2023/07/28 03:00:41;;;;;;;;;;;18.10;99.90;;;;;;5066854;28;19917;-86
2023/07/28 03:03:08;;;;;;;;;;;18.20;99.90;;;;;;5066518;28;19935;-86
2023/07/28 03:05:33;;;;;;;;;;;18.20;99.90;;;;;;5061630;28;19968;-86
2023/07/28 03:07:59;;;;;;;;;;;18.20;99.90;;;;;;5068730;28;19966;-86
2023/07/28 03:10:24;;;;;;;;;;;18.20;99.90;;;;;;5066315;28;20000;-85
2023/07/28 03:12:50;;;;;;;;;;;18.20;99.90;;;;;;5064017;28;19912;-86
2023/07/28 03:15:15;;;;;;;;;;;18.20;99.90;;;;;;5066523;28;19928;-88
2023/07/28 03:17:41;;;;;;;;;;;18.20;99.90;;;;;;5067074;28;20432;-88
2023/07/28 03:20:06;;;;;;;;;;;18.20;99.90;;;;;;5066725;28;19913;-87
2023/07/28 03:22:32;;;;;;;;;;;18.20;99.90;;;;;;5065457;28;20011;-87
2023/07/28 03:24:58;;;;;;;;;;;18.20;99.90;;;;;;5064114;28;20275;-85
2023/07/28 03:27:24;;;;;;;;;;;18.20;99.90;;;;;;5061133;28;19924;-89
2023/07/28 03:29:50;;;;;;;;;;;18.20;99.90;;;;;;5057915;28;20550;-86
2023/07/28 03:32:15;;;;;;;;;;;18.20;99.90;;;;;;5062073;28;19965;-85
2023/07/28 03:34:41;;;;;;;;;;;18.20;99.90;;;;;;5056620;28;20514;-85
2023/07/28 03:37:06;;;;;;;;;;;18.20;99.90;;;;;;5054715;28;20393;-86
2023/07/28 03:39:32;;;;;;;;;;;18.20;99.90;;;;;;5061731;28;20588;-88
2023/07/28 03:41:57;;;;;;;;;;;18.20;99.90;;;;;;5065815;28;19912;-86
2023/07/28 03:44:23;;;;;;;;;;;18.20;99.90;;;;;;5080481;28;20311;-86
2023/07/28 03:46:48;;;;;;;;;;;18.20;99.90;;;;;;5059560;28;19938;-86
2023/07/28 03:49:14;;;;;;;;;;;18.20;99.90;;;;;;5066618;28;19941;-87
2023/07/28 03:51:40;;;;;;;;;;;18.20;99.90;;;;;;5067294;28;19952;-88
2023/07/28 03:54:05;;;;;;;;;;;18.20;99.90;;;;;;5060842;28;19928;-86
2023/07/28 03:56:31;;;;;;;;;;;18.20;99.90;;;;;;5064177;28;19975;-86
2023/07/28 03:58:56;;;;;;;;;;;18.20;99.90;;;;;;5066465;28;20562;-87
2023/07/28 04:01:22;;;;;;;;;;;18.20;99.90;;;;;;5059005;28;20396;-86
2023/07/28 04:03:47;;;;;;;;;;;18.20;99.90;;;;;;5080647;28;19969;-87
2023/07/28 04:06:13;;;;;;;;;;;18.20;99.90;;;;;;5065518;28;19920;-85
2023/07/28 04:08:41;;;;;;;;;;;18.20;99.90;;;;;;5066019;28;19916;-87
2023/07/28 04:11:07;;;;;;;;;;;18.20;99.90;;;;;;5062767;28;19916;-89
2023/07/28 04:13:33;;;;;;;;;;;18.20;99.90;;;;;;5065386;28;19920;-86
2023/07/28 04:15:58;;;;;;;;;;;18.20;99.90;;;;;;5060843;28;19919;-88
2023/07/28 04:18:24;;;;;;;;;;;18.20;99.90;;;;;;5064247;28;19916;-87
2023/07/28 04:20:49;;;;;;;;;;;18.20;99.90;;;;;;5067658;28;19943;-87
2023/07/28 04:23:15;;;;;;;;;;;18.20;99.90;;;;;;5081994;28;20392;-87
2023/07/28 04:25:40;;;;;;;;;;;18.20;99.90;;;;;;5065648;28;19920;-87
2023/07/28 04:28:06;;;;;;;;;;;18.20;99.90;;;;;;5065951;28;19925;-86
2023/07/28 04:30:31;;;;;;;;;;;18.10;99.90;;;;;;5067280;28;19929;-86
2023/07/28 04:32:57;;;;;;;;;;;18.10;99.90;;;;;;5065570;28;20362;-86
2023/07/28 04:35:22;;;;;;;;;;;18.20;99.90;;;;;;5068185;28;19920;-87
2023/07/28 04:37:48;;;;;;;;;;;18.20;99.90;;;;;;5063241;28;20073;-88
2023/07/28 04:40:13;;;;;;;;;;;18.10;99.90;;;;;;5063273;28;19956;-87
2023/07/28 04:42:39;;;;;;;;;;;18.10;99.90;;;;;;5069550;28;20420;-87
2023/07/28 04:45:05;;;;;;;;;;;18.10;99.90;;;;;;5064480;28;19923;-87
2023/07/28 04:47:30;;;;;;;;;;;18.10;99.90;;;;;;5069593;28;19990;-87
2023/07/28 04:49:56;;;;;;;;;;;18.10;99.90;;;;;;5069493;28;19912;-87
2023/07/28 04:52:21;;;;;;;;;;;18.10;99.90;;;;;;5070047;28;19912;-88
2023/07/28 04:54:47;;;;;;;;;;;18.10;99.90;;;;;;5069237;28;19993;-87
2023/07/28 04:57:12;;;;;;;;;;;18.10;99.90;;;;;;5069617;28;19958;-87
2023/07/28 04:59:38;;;;;;;;;;;18.10;99.90;;;;;;5067778;28;19913;-87
2023/07/28 05:02:03;;;;;;;;;;;18.10;99.90;;;;;;5067670;28;19916;-87
2023/07/28 05:04:29;;;;;;;;;;;18.10;99.90;;;;;;5067008;28;19975;-88
2023/07/28 05:06:54;;;;;;;;;;;18.20;99.90;;;;;;5064335;28;19912;-86
2023/07/28 05:09:20;;;;;;;;;;;18.10;99.90;;;;;;5069953;28;19924;-87
2023/07/28 05:11:45;;;;;;;;;;;18.20;99.90;;;;;;5069225;28;20358;-89
2023/07/28 05:14:11;;;;;;;;;;;18.20;99.90;;;;;;5062165;28;19931;-86
2023/07/28 05:16:36;;;;;;;;;;;18.20;99.90;;;;;;5066493;28;19973;-87
2023/07/28 05:19:03;;;;;;;;;;;18.20;99.90;;;;;;5065495;28;19919;-88
2023/07/28 05:21:29;;;;;;;;;;;18.20;99.90;;;;;;5066038;28;19912;-86
2023/07/28 05:23:54;;;;;;;;;;;18.20;99.90;;;;;;5086962;28;19916;-89
2023/07/28 05:26:19;;;;;;;;;;;18.20;99.90;;;;;;5065859;28;20309;-86
2023/07/28 05:32:06;;;;;;;;;;;18.20;99.90;;;;;;4934601;27;4131639;-87
2023/07/28 05:34:34;;;;;;;;;;;18.30;99.90;;;;;;5094669;28;20364;-86
2023/07/28 05:37:18;;;;;;;;;;;18.30;99.90;;;;;;5095674;28;19920;-87
2023/07/28 05:39:46;;;;;;;;;;;18.30;99.90;;;;;;5079018;28;19916;-87
2023/07/28 05:42:24;;;;;;;;;;;18.30;99.90;;;;;;5078016;28;19916;-86
2023/07/28 05:44:51;;;;;;;;;;;18.30;99.90;;;;;;5076994;28;19950;-87
2023/07/28 05:47:20;;;;;;;;;;;18.30;99.90;;;;;;5064516;28;20411;-88
2023/07/28 05:49:54;;;;;;;;;;;18.30;99.90;;;;;;5081899;28;20274;-87
2023/07/28 05:52:19;;;;;;;;;;;18.30;99.90;;;;;;5102724;28;19990;-88
2023/07/28 05:54:45;;;;;;;;;;;18.30;99.90;;;;;;5083284;28;19946;-86
2023/07/28 05:57:12;;;;;;;;;;;18.30;99.90;;;;;;5084089;28;19916;-88
2023/07/28 05:59:40;;;;;;;;;;;18.40;99.90;;;;;;5066575;28;19912;-88
2023/07/28 06:02:05;;;;;;;;;;;18.30;99.90;;;;;;5064710;28;20529;-89
2023/07/28 06:04:41;;;;;;;;;;;18.40;99.90;;;;;;5083029;28;20332;-87
2023/07/28 06:07:07;;;;;;;;;;;18.40;99.90;;;;;;5078406;28;19912;-87
2023/07/28 06:09:33;;;;;;;;;;;18.40;99.90;;;;;;5095508;28;19942;-88
2023/07/28 06:12:01;;;;;;;;;;;18.40;99.90;;;;;;5087847;28;20812;-88
2023/07/28 06:14:26;;;;;;;;;;;18.40;99.90;;;;;;5092353;28;19916;-87
2023/07/28 06:16:52;;;;;;;;;;;18.40;99.90;;;;;;5094545;28;19916;-87
2023/07/28 06:19:23;;;;;;;;;;;18.40;99.90;;;;;;5094844;28;20267;-88
2023/07/28 06:21:55;;;;;;;;;;;18.50;99.90;;;;;;5082791;28;20318;-88
2023/07/28 06:24:21;;;;;;;;;;;18.50;99.90;;;;;;5094628;28;19939;-88
2023/07/28 06:26:53;;;;;;;;;;;18.40;99.90;;;;;;5080057;28;20368;-88
2023/07/28 06:29:29;;;;;;;;;;;18.50;99.90;;;;;;5075310;28;20360;-88
2023/07/28 06:31:58;;;;;;;;;;;18.50;99.90;;;;;;5095448;28;20624;-88
2023/07/28 06:34:26;;;;;;;;;;;18.50;99.90;;;;;;5076808;28;19911;-88
2023/07/28 06:36:57;;;;;;;;;;;18.50;99.90;;;;;;5095514;28;19923;-88
2023/07/28 06:39:39;;;;;;;;;;;18.50;99.90;;;;;;5092747;28;19939;-88
2023/07/28 06:42:08;;;;;;;;;;;18.50;99.90;;;;;;5069306;28;19954;-88
2023/07/28 06:44:33;;;;;;;;;;;18.60;99.90;;;;;;5077176;28;20000;-88
2023/07/28 06:46:59;;;;;;;;;;;18.60;99.90;;;;;;5062235;28;20005;-88
2023/07/28 06:49:31;;;;;;;;;;;18.60;99.90;;;;;;5080179;28;20302;-87
2023/07/28 06:51:58;;;;;;;;;;;18.60;99.90;;;;;;5062668;28;19946;-87
2023/07/28 06:54:30;;;;;;;;;;;18.60;99.90;;;;;;5064149;28;20263;-88
2023/07/28 06:57:06;;;;;;;;;;;18.60;99.90;;;;;;5078478;28;19912;-87
2023/07/28 06:59:35;;;;;;;;;;;18.60;99.90;;;;;;5060957;28;20581;-87
2023/07/28 07:02:05;;;;;;;;;;;18.60;99.90;;;;;;5059956;28;19908;-87
2023/07/28 07:04:54;;;;;;;;;;;18.60;99.90;;;;;;5062841;28;19916;-88
2023/07/28 07:07:25;;;;;;;;;;;18.50;99.90;;;;;;5062576;28;19908;-88
2023/07/28 07:09:54;;;;;;;;;;;18.60;99.90;;;;;;5062621;28;20371;-87
2023/07/28 07:12:23;;;;;;;;;;;18.70;99.90;;;;;;5059797;28;20380;-87
2023/07/28 07:14:54;;;;;;;;;;;18.80;99.90;;;;;;5080436;28;19908;-86
2023/07/28 07:17:22;;;;;;;;;;;18.90;99.90;;;;;;5077476;28;19916;-83
2023/07/28 07:20:05;;;;;;;;;;;19.00;99.90;;;;;;5079859;28;19915;-85
2023/07/28 07:22:31;;;;;;;;;;;19.00;99.90;;;;;;5065378;28;20295;-86
2023/07/28 07:24:59;;;;;;;;;;;19.20;99.90;;;;;;5069067;28;19908;-85
2023/07/28 07:27:25;;;;;;;;;;;19.20;99.90;;;;;;5076970;28;19963;-84
2023/07/28 07:29:51;;;;;;;;;;;19.20;99.90;;;;;;5076240;28;20011;-84
2023/07/28 07:32:18;;;;;;;;;;;19.20;99.90;;;;;;5078261;28;20010;-85
2023/07/28 07:34:47;;;;;;;;;;;19.20;99.90;;;;;;5060858;28;19927;-85
2023/07/28 07:37:12;;;;;;;;;;;19.20;99.90;;;;;;5059675;28;19950;-84
2023/07/28 07:39:40;;;;;;;;;;;19.10;99.90;;;;;;5057024;28;20305;-85
2023/07/28 07:42:14;;;;;;;;;;;19.10;99.90;;;;;;5057665;28;20097;-85
2023/07/28 07:44:42;;;;;;;;;;;19.10;99.90;;;;;;5058024;28;19916;-85
2023/07/28 07:47:12;;;;;;;;;;;19.10;99.90;;;;;;5076748;28;19920;-85
2023/07/28 07:49:39;;;;;;;;;;;19.20;99.90;;;;;;5060552;28;19962;-86
2023/07/28 07:52:05;;;;;;;;;;;19.30;99.90;;;;;;5059806;28;20002;-86
2023/07/28 07:54:30;;;;;;;;;;;19.40;99.90;;;;;;5070921;28;19912;-86
2023/07/28 07:56:56;;;;;;;;;;;19.40;99.90;;;;;;5079231;28;19917;-86
2023/07/28 07:59:27;;;;;;;;;;;19.50;99.90;;;;;;5064851;28;20283;-87
2023/07/28 08:01:58;;;;;;;;;;;19.50;99.90;;;;;;5063437;28;20388;-86
2023/07/28 08:04:26;;;;;;;;;;;19.50;99.90;;;;;;5082764;28;20031;-87
2023/07/28 08:06:57;;;;;;;;;;;19.40;99.90;;;;;;5080662;28;19923;-86
2023/07/28 08:09:25;;;;;;;;;;;19.40;99.90;;;;;;5079376;28;19920;-87
2023/07/28 08:11:52;;;;;;;;;;;19.50;99.90;;;;;;5079151;28;19920;-88
2023/07/28 08:14:28;;;;;;;;;;;19.40;99.90;;;;;;5077041;28;19916;-87
2023/07/28 08:16:57;;;;;;;;;;;19.40;99.90;;;;;;5078029;28;19916;-86
2023/07/28 08:19:23;;;;;;;;;;;19.40;99.90;;;;;;5057583;28;19963;-86
2023/07/28 08:21:50;;;;;;;;;;;19.40;99.90;;;;;;5078120;28;19914;-88
2023/07/28 08:24:16;;;;;;;;;;;19.50;99.90;;;;;;5076659;28;20260;-86
2023/07/28 08:26:43;;;;;;;;;;;19.50;99.90;;;;;;5058450;28;19916;-86
2023/07/28 08:29:15;;;;;;;;;;;19.60;99.90;;;;;;5047651;28;19919;-86
2023/07/28 08:31:49;;;;;;;;;;;19.70;99.90;;;;;;5055254;28;19924;-86
2023/07/28 08:37:37;;;;;;;;;;;19.70;99.90;;;;;;5051907;28;19915;-88
2023/07/28 08:40:15;;;;;;;;;;;19.70;99.90;;;;;;5058611;28;19960;-88
2023/07/28 08:42:57;;;;;;;;;;;19.60;99.90;;;;;;5056623;28;19908;-89
2023/07/28 08:45:26;;;;;;;;;;;19.60;99.90;;;;;;5038806;28;19924;-88
2023/07/28 08:48:01;;;;;;;;;;;19.60;99.90;;;;;;5053509;28;19923;-89
2023/07/28 08:50:51;;;;;;;;;;;19.70;99.90;;;;;;5051829;28;20319;-89
2023/07/28 08:53:22;;;;;;;;;;;19.90;99.90;;;;;;5056835;28;20364;-89
2023/07/28 08:55:48;;;;;;;;;;;20.00;99.90;;;;;;5056516;28;19973;-89
2023/07/28 08:58:24;;;;;;;;;;;20.00;99.90;;;;;;5058107;28;19909;-89
2023/07/28 09:00:52;;;;;;;;;;;20.10;99.90;;;;;;5059691;28;19916;-88
2023/07/28 09:03:27;;;;;;;;;;;20.10;99.90;;;;;;5055901;28;19970;-89
2023/07/28 09:06:11;;;;;;;;;;;20.10;99.90;;;;;;5055105;28;19954;-88
2023/07/28 09:08:45;;;;;;;;;;;20.10;99.90;;;;;;5056520;28;19916;-88
2023/07/28 09:11:13;;;;;;;;;;;20.10;99.90;;;;;;5072380;28;19982;-88
2023/07/28 09:13:42;;;;;;;;;;;20.00;99.90;;;;;;5058364;28;19913;-88
2023/07/28 09:16:24;;;;;;;;;;;20.00;99.90;;;;;;5056862;28;19923;-88
2023/07/28 09:19:06;;;;;;;;;;;20.10;99.90;;;;;;5058376;28;20356;-88
2023/07/28 09:21:45;;;;;;;;;;;20.20;99.90;;;;;;5070826;28;19925;-83
2023/07/28 09:24:13;;;;;;;;;;;20.10;99.90;;;;;;5052333;28;20344;-87
2023/07/28 09:26:44;;;;;;;;;;;20.10;99.90;;;;;;5051349;28;19987;-85
2023/07/28 09:29:27;;;;;;;;;;;20.10;99.90;;;;;;5056940;28;19920;-86
2023/07/28 09:32:11;;;;;;;;;;;20.20;99.90;;;;;;5052005;28;20267;-85
2023/07/28 09:35:00;;;;;;;;;;;20.30;99.90;;;;;;5068608;28;20378;-85
2023/07/28 09:37:26;;;;;;;;;;;20.40;99.90;;;;;;5052605;28;19959;-85
2023/07/28 09:39:58;;;;;;;;;;;20.50;99.90;;;;;;5036615;28;20039;-86
2023/07/28 09:42:32;;;;;;;;;;;20.80;99.90;;;;;;5054258;28;19916;-86
2023/07/28 09:45:11;;;;;;;;;;;21.00;99.90;;;;;;5057861;28;19925;-86
2023/07/28 09:47:53;;;;;;;;;;;21.30;99.90;;;;;;5052854;28;19917;-87
2023/07/28 09:50:30;;;;;;;;;;;21.80;99.90;;;;;;5062167;28;19928;-85
2023/07/28 09:53:04;;;;;;;;;;;21.90;99.90;;;;;;5055565;28;20380;-86
2023/07/28 09:55:42;;;;;;;;;;;21.90;99.90;;;;;;5060444;28;19916;-86
2023/07/28 09:58:12;;;;;;;;;;;21.80;99.90;;;;;;5053287;28;19916;-86
2023/07/28 10:00:47;;;;;;;;;;;21.70;99.90;;;;;;5058030;28;19931;-86
2023/07/28 10:03:27;;;;;;;;;;;21.80;99.90;;;;;;5053224;28;20250;-85
2023/07/28 10:06:02;;;;;;;;;;;21.80;99.90;;;;;;5060169;28;19940;-87
2023/07/28 10:08:30;;;;;;;;;;;22.00;99.90;;;;;;5056443;28;19913;-87
2023/07/28 10:17:17;;;;;;;;;;;23.80;99.90;;;;;;5056436;28;20359;-89
2023/07/28 10:19:58;;;;;;;;;;;24.90;99.90;;;;;;5059835;28;19923;-84
2023/07/28 10:22:32;;;;;;;;;;;25.60;99.90;;;;;;5056200;28;19986;-86
2023/07/28 10:25:01;;;;;;;;;;;25.60;99.90;;;;;;5059396;28;19916;-86
2023/07/28 10:27:50;;;;;;;;;;;25.90;99.90;;;;;;5059014;28;19916;-85
2023/07/28 10:30:52;;;;;;;;;;;25.90;99.90;;;;;;5055366;28;20340;-87
2023/07/28 10:33:33;;;;;;;;;;;25.60;99.90;;;;;;5054486;28;19948;-86
2023/07/28 10:36:23;;;;;;;;;;;25.20;99.90;;;;;;5060266;28;19982;-88
2023/07/28 10:39:09;;;;;;;;;;;25.00;99.90;;;;;;5057452;28;20263;-90
2023/07/28 10:42:03;;;;;;;;;;;24.80;99.90;;;;;;5060556;28;19947;-87
2023/07/28 10:44:59;;;;;;;;;;;24.90;99.90;;;;;;5060710;28;19921;-86
2023/07/28 10:48:05;;;;;;;;;;;25.90;99.90;;;;;;5081611;28;19913;-86
2023/07/28 10:50:42;;;;;;;;;;;26.30;99.90;;;;;;5081807;28;19939;-87
2023/07/28 10:53:17;;;;;;;;;;;25.90;99.90;;;;;;5099549;28;19991;-87
2023/07/28 10:56:03;;;;;;;;;;;25.60;99.90;;;;;;5079878;28;20518;-86
2023/07/28 10:58:37;;;;;;;;;;;25.30;99.90;;;;;;5059571;28;19917;-85
2023/07/28 11:01:05;;;;;;;;;;;25.80;99.90;;;;;;5059181;28;19920;-86
2023/07/28 11:03:39;;;;;;;;;;;26.50;99.90;;;;;;5061559;28;19983;-85
2023/07/28 11:06:42;;;;;;;;;;;26.90;99.90;;;;;;5058490;28;19924;-86
2023/07/28 11:09:22;;;;;;;;;;;27.00;99.90;;;;;;5059734;28;20380;-85
2023/07/28 11:11:55;;;;;;;;;;;26.30;99.90;;;;;;5042824;28;19924;-85
2023/07/28 11:14:29;;;;;;;;;;;25.60;99.90;;;;;;5074062;28;19916;-86
2023/07/28 11:17:06;;;;;;;;;;;25.50;99.90;;;;;;5055539;28;20345;-85
2023/07/28 11:19:39;;;;;;;;;;;25.50;99.90;;;;;;5058290;28;20011;-85
2023/07/28 11:22:11;;;;;;;;;;;25.20;99.90;;;;;;5058498;28;20667;-85
2023/07/28 11:24:37;;;;;;;;;;;25.30;99.90;;;;;;5057032;28;20391;-85
2023/07/28 11:27:12;;;;;;;;;;;25.70;99.90;;;;;;5054065;28;19928;-86
2023/07/28 11:29:43;;;;;;;;;;;26.20;99.90;;;;;;5055466;28;19924;-85
2023/07/28 11:32:16;;;;;;;;;;;26.10;99.90;;;;;;5055066;28;20026;-85
2023/07/28 11:34:43;;;;;;;;;;;25.80;99.90;;;;;;5056760;28;21768;-86
2023/07/28 11:37:12;;;;;;;;;;;25.50;99.90;;;;;;5056556;28;20313;-85
2023/07/28 11:39:41;;;;;;;;;;;25.00;99.90;;;;;;5055886;28;19917;-85
2023/07/28 11:42:11;;;;;;;;;;;24.80;99.90;;;;;;5055248;28;19912;-84
2023/07/28 11:44:39;;;;;;;;;;;24.60;99.90;;;;;;5054108;28;20261;-85
2023/07/28 11:47:09;;;;;;;;;;;24.50;99.90;;;;;;5055222;28;19916;-85
2023/07/28 11:49:45;;;;;;;;;;;24.50;99.90;;;;;;5056923;28;20307;-87
2023/07/28 11:52:15;;;;;;;;;;;24.90;99.90;;;;;;5058595;28;19924;-85
2023/07/28 11:54:44;;;;;;;;;;;25.20;99.90;;;;;;5058929;28;19996;-85
2023/07/28 11:57:13;;;;;;;;;;;25.50;99.90;;;;;;5055843;28;20450;-86
2023/07/28 11:59:41;;;;;;;;;;;25.60;99.90;;;;;;5059070;28;19917;-85
2023/07/28 12:02:20;;;;;;;;;;;25.50;99.90;;;;;;5048104;28;19944;-86
2023/07/28 12:04:47;;;;;;;;;;;25.40;99.90;;;;;;5060270;28;19916;-85
2023/07/28 12:07:29;;;;;;;;;;;25.30;99.90;;;;;;5057660;28;20161;-85
2023/07/28 12:10:09;;;;;;;;;;;25.30;99.90;;;;;;5061536;28;19920;-86
2023/07/28 12:12:43;;;;;;;;;;;25.20;99.90;;;;;;5059271;28;19932;-85
2023/07/28 12:15:28;;;;;;;;;;;25.20;99.90;;;;;;5072759;28;19927;-84
2023/07/28 12:18:16;;;;;;;;;;;25.30;99.90;;;;;;5060251;28;19963;-85
2023/07/28 12:20:57;;;;;;;;;;;25.70;99.90;;;;;;5058946;28;19917;-84
2023/07/28 12:23:25;;;;;;;;;;;25.90;99.90;;;;;;5056887;28;19967;-83
2023/07/28 12:25:52;;;;;;;;;;;25.90;99.90;;;;;;5059296;28;20039;-84
2023/07/28 12:28:25;;;;;;;;;;;25.90;99.90;;;;;;5073103;28;19909;-84
2023/07/28 12:30:55;;;;;;;;;;;25.90;99.90;;;;;;5057481;28;19926;-84
2023/07/28 12:33:21;;;;;;;;;;;26.20;99.90;;;;;;5075179;28;19932;-85
2023/07/28 12:35:53;;;;;;;;;;;26.60;99.90;;;;;;5078579;28;20375;-85
2023/07/28 12:38:21;;;;;;;;;;;27.00;99.90;;;;;;5058572;28;19915;-84
2023/07/28 12:40:55;;;;;;;;;;;27.00;99.90;;;;;;5059753;28;20283;-84
2023/07/28 12:43:30;;;;;;;;;;;27.00;99.90;;;;;;5052028;28;19920;-85
2023/07/28 12:45:57;;;;;;;;;;;27.10;99.90;;;;;;5076104;28;19920;-86
2023/07/28 12:48:23;;;;;;;;;;;27.00;99.90;;;;;;5057674;28;19912;-87
2023/07/28 12:50:54;;;;;;;;;;;27.00;99.90;;;;;;5053274;28;20212;-85
2023/07/28 12:53:23;;;;;;;;;;;26.80;99.90;;;;;;5054804;28;19916;-86
2023/07/28 12:55:53;;;;;;;;;;;26.90;99.90;;;;;;5060259;28;20352;-84
2023/07/28 12:58:23;;;;;;;;;;;27.40;99.90;;;;;;5068747;28;19924;-85
2023/07/28 13:01:07;;;;;;;;;;;28.30;99.90;;;;;;5055553;28;20276;-85
2023/07/28 13:03:38;;;;;;;;;;;28.60;99.90;;;;;;5073513;28;20097;-85
2023/07/28 13:06:08;;;;;;;;;;;28.80;99.90;;;;;;5074415;28;19912;-85
2023/07/28 13:08:40;;;;;;;;;;;29.30;99.90;;;;;;5064327;28;19928;-86
2023/07/28 13:11:20;;;;;;;;;;;29.90;99.90;;;;;;5074380;28;20031;-85
2023/07/28 13:13:48;;;;;;;;;;;30.40;99.90;;;;;;5055450;28;19920;-85
2023/07/28 13:16:25;;;;;;;;;;;30.70;99.90;;;;;;5053198;28;19909;-84
2023/07/28 13:19:00;;;;;;;;;;;30.90;99.90;;;;;;5048483;28;19916;-84
2023/07/28 13:21:33;;;;;;;;;;;30.80;99.90;;;;;;5074836;28;19959;-84
2023/07/28 13:24:10;;;;;;;;;;;30.30;99.90;;;;;;5056576;28;19919;-84
2023/07/28 13:26:36;;;;;;;;;;;30.40;99.90;;;;;;5057043;28;20430;-86
2023/07/28 13:29:15;;;;;;;;;;;30.70;99.90;;;;;;5057135;28;19909;-87
2023/07/28 13:31:43;;;;;;;;;;;30.80;99.90;;;;;;5073714;28;20003;-85
2023/07/28 13:34:12;;;;;;;;;;;30.80;99.90;;;;;;5074714;28;19993;-85
2023/07/28 13:36:43;;;;;;;;;;;30.50;99.90;;;;;;5073811;28;19912;-86
2023/07/28 13:39:10;;;;;;;;;;;30.30;99.90;;;;;;5052372;28;19965;-84
2023/07/28 13:41:41;;;;;;;;;;;29.90;99.90;;;;;;5068366;28;19913;-84
2023/07/28 13:44:13;;;;;;;;;;;29.90;99.90;;;;;;5054806;28;20302;-84
2023/07/28 13:46:43;;;;;;;;;;;29.90;99.90;;;;;;5075538;28;20115;-85
2023/07/28 13:49:17;;;;;;;;;;;30.00;99.90;;;;;;5074489;28;19971;-85
2023/07/28 13:51:44;;;;;;;;;;;30.60;99.90;;;;;;5074334;28;20548;-85
2023/07/28 13:54:11;;;;;;;;;;;30.80;99.90;;;;;;5080513;28;20484;-84
2023/07/28 13:56:45;;;;;;;;;;;31.10;99.90;;;;;;5069507;28;20023;-85
2023/07/28 13:59:13;;;;;;;;;;;31.10;99.90;;;;;;5070538;28;19908;-84
2023/07/28 14:01:39;;;;;;;;;;;31.20;99.90;;;;;;5072451;28;19924;-85
2023/07/28 14:04:09;;;;;;;;;;;31.10;99.90;;;;;;5058839;28;19920;-85
2023/07/28 14:06:43;;;;;;;;;;;31.10;99.90;;;;;;5079072;28;19920;-85
2023/07/28 14:09:09;;;;;;;;;;;31.20;99.90;;;;;;5060889;28;19920;-84
2023/07/28 14:11:41;;;;;;;;;;;31.40;99.90;;;;;;5077684;28;19921;-84
2023/07/28 14:14:13;;;;;;;;;;;31.60;99.90;;;;;;5059874;28;19969;-85
2023/07/28 14:16:43;;;;;;;;;;;31.50;99.90;;;;;;5078014;28;19916;-87
2023/07/28 14:19:22;;;;;;;;;;;31.80;99.90;;;;;;5081160;28;19924;-86
2023/07/28 14:21:56;;;;;;;;;;;31.70;99.90;;;;;;5079078;28;19908;-85
2023/07/28 14:24:25;;;;;;;;;;;30.90;99.90;;;;;;5078323;28;19920;-86
2023/07/28 14:26:57;;;;;;;;;;;30.00;99.90;;;;;;5076780;28;19998;-85
2023/07/28 14:29:29;;;;;;;;;;;29.50;99.90;;;;;;5076846;28;19912;-85
2023/07/28 14:32:09;;;;;;;;;;;29.10;99.90;;;;;;5055699;28;19924;-86
2023/07/28 14:35:02;;;;;;;;;;;28.90;99.90;;;;;;5058634;28;19917;-85
2023/07/28 14:37:31;;;;;;;;;;;28.70;99.90;;;;;;5056504;28;20639;-84
2023/07/28 14:40:00;;;;;;;;;;;28.40;99.90;;;;;;5056399;28;19920;-85
2023/07/28 14:42:32;;;;;;;;;;;28.10;99.90;;;;;;5052428;28;20284;-85
2023/07/28 14:45:03;;;;;;;;;;;27.90;99.90;;;;;;5051649;28;20431;-88
2023/07/28 14:47:37;;;;;;;;;;;27.80;99.90;;;;;;5056288;28;19967;-88